sensor_id;sensor_type;location;lat;lon;timestamp;P1;durP1;ratioP1;P2;durP2;ratioP2
44276;SDS011;29973;43.742;1.236;2022-10-26T00:01:03;57.97;;;19.02;;
44276;SDS011;29973;43.742;1.236;2022-10-26T00:03:29;49.40;;;18.60;;
44276;SDS011;29973;43.742;1.236;2022-10-26T00:06:00;45.40;;;18.40;;
44276;SDS011;29973;43.742;1.236;2022-10-26T00:08:37;49.15;;;17.88;;
44276;SDS011;29973;43.742;1.236;2022-10-26T00:11:03;43.13;;;17.33;;
44276;SDS011;29973;43.742;1.236;2022-10-26T00:13:29;45.95;;;18.42;;
44276;SDS011;29973;43.742;1.236;2022-10-26T00:15:55;42.13;;;18.35;;
44276;SDS011;29973;43.742;1.236;2022-10-26T00:18:21;47.13;;;17.83;;
44276;SDS011;29973;43.742;1.236;2022-10-26T00:20:48;47.70;;;17.23;;
44276;SDS011;29973;43.742;1.236;2022-10-26T00:23:14;54.08;;;19.42;;
44276;SDS011;29973;43.742;1.236;2022-10-26T00:25:40;45.13;;;17.40;;
44276;SDS011;29973;43.742;1.236;2022-10-26T00:28:06;48.47;;;18.73;;
44276;SDS011;29973;43.742;1.236;2022-10-26T00:30:31;49.00;;;19.70;;
44276;SDS011;29973;43.742;1.236;2022-10-26T00:32:57;54.45;;;19.50;;
44276;SDS011;29973;43.742;1.236;2022-10-26T00:35:23;46.13;;;19.42;;
44276;SDS011;29973;43.742;1.236;2022-10-26T00:37:52;47.25;;;19.48;;
44276;SDS011;29973;43.742;1.236;2022-10-26T00:40:19;52.47;;;19.00;;
44276;SDS011;29973;43.742;1.236;2022-10-26T00:42:45;47.72;;;18.88;;
44276;SDS011;29973;43.742;1.236;2022-10-26T00:45:17;45.28;;;19.92;;
44276;SDS011;29973;43.742;1.236;2022-10-26T00:47:53;55.75;;;19.40;;
44276;SDS011;29973;43.742;1.236;2022-10-26T00:50:32;59.15;;;22.25;;
44276;SDS011;29973;43.742;1.236;2022-10-26T00:53:01;50.22;;;21.40;;
44276;SDS011;29973;43.742;1.236;2022-10-26T00:55:30;48.75;;;19.30;;
44276;SDS011;29973;43.742;1.236;2022-10-26T00:57:59;53.65;;;19.92;;
44276;SDS011;29973;43.742;1.236;2022-10-26T01:00:28;48.05;;;17.98;;
44276;SDS011;29973;43.742;1.236;2022-10-26T01:02:54;65.68;;;19.88;;
44276;SDS011;29973;43.742;1.236;2022-10-26T01:05:23;51.58;;;18.75;;
44276;SDS011;29973;43.742;1.236;2022-10-26T01:07:50;44.60;;;19.42;;
44276;SDS011;29973;43.742;1.236;2022-10-26T01:10:16;45.63;;;19.15;;
44276;SDS011;29973;43.742;1.236;2022-10-26T01:12:42;54.38;;;19.52;;
44276;SDS011;29973;43.742;1.236;2022-10-26T01:15:09;61.72;;;20.60;;
44276;SDS011;29973;43.742;1.236;2022-10-26T01:32:15;61.67;;;20.75;;
44276;SDS011;29973;43.742;1.236;2022-10-26T01:34:48;69.40;;;21.90;;
44276;SDS011;29973;43.742;1.236;2022-10-26T01:37:21;63.42;;;21.98;;
44276;SDS011;29973;43.742;1.236;2022-10-26T01:42:17;64.50;;;22.20;;
44276;SDS011;29973;43.742;1.236;2022-10-26T01:45:06;63.05;;;23.73;;
44276;SDS011;29973;43.742;1.236;2022-10-26T01:47:32;72.53;;;23.77;;
44276;SDS011;29973;43.742;1.236;2022-10-26T01:50:01;63.70;;;23.55;;
44276;SDS011;29973;43.742;1.236;2022-10-26T01:52:29;65.97;;;24.98;;
44276;SDS011;29973;43.742;1.236;2022-10-26T02:00:45;58.58;;;22.02;;
44276;SDS011;29973;43.742;1.236;2022-10-26T02:03:25;59.00;;;22.45;;
44276;SDS011;29973;43.742;1.236;2022-10-26T02:06:02;63.50;;;23.45;;
44276;SDS011;29973;43.742;1.236;2022-10-26T02:11:35;100.97;;;27.48;;
44276;SDS011;29973;43.742;1.236;2022-10-26T02:14:13;65.80;;;24.50;;
44276;SDS011;29973;43.742;1.236;2022-10-26T02:16:52;89.28;;;29.63;;
44276;SDS011;29973;43.742;1.236;2022-10-26T02:22:14;82.38;;;28.15;;
44276;SDS011;29973;43.742;1.236;2022-10-26T02:24:46;98.15;;;30.15;;
44276;SDS011;29973;43.742;1.236;2022-10-26T02:27:24;86.82;;;30.85;;
44276;SDS011;29973;43.742;1.236;2022-10-26T02:29:53;105.68;;;32.15;;
44276;SDS011;29973;43.742;1.236;2022-10-26T02:32:24;83.50;;;29.60;;
44276;SDS011;29973;43.742;1.236;2022-10-26T02:37:40;99.20;;;26.98;;
44276;SDS011;29973;43.742;1.236;2022-10-26T02:40:09;98.35;;;28.48;;
44276;SDS011;29973;43.742;1.236;2022-10-26T02:42:41;94.55;;;28.83;;
44276;SDS011;29973;43.742;1.236;2022-10-26T02:45:10;109.07;;;30.50;;
44276;SDS011;29973;43.742;1.236;2022-10-26T02:47:39;79.82;;;27.35;;
44276;SDS011;29973;43.742;1.236;2022-10-26T02:50:05;105.63;;;28.77;;
44276;SDS011;29973;43.742;1.236;2022-10-26T02:55:48;72.60;;;25.73;;
44276;SDS011;29973;43.742;1.236;2022-10-26T02:58:16;78.45;;;25.30;;
44276;SDS011;29973;43.742;1.236;2022-10-26T03:00:48;74.85;;;25.85;;
44276;SDS011;29973;43.742;1.236;2022-10-26T03:03:15;84.20;;;26.00;;
44276;SDS011;29973;43.742;1.236;2022-10-26T03:05:42;68.57;;;24.83;;
44276;SDS011;29973;43.742;1.236;2022-10-26T03:08:08;103.32;;;27.95;;
44276;SDS011;29973;43.742;1.236;2022-10-26T03:10:39;87.25;;;28.05;;
44276;SDS011;29973;43.742;1.236;2022-10-26T03:13:07;79.30;;;28.30;;
44276;SDS011;29973;43.742;1.236;2022-10-26T03:15:33;93.53;;;26.77;;
44276;SDS011;29973;43.742;1.236;2022-10-26T03:17:59;89.63;;;27.45;;
44276;SDS011;29973;43.742;1.236;2022-10-26T03:20:25;106.38;;;31.60;;
44276;SDS011;29973;43.742;1.236;2022-10-26T03:22:51;92.05;;;30.35;;
44276;SDS011;29973;43.742;1.236;2022-10-26T03:25:16;88.57;;;28.80;;
44276;SDS011;29973;43.742;1.236;2022-10-26T03:27:42;98.35;;;30.00;;
44276;SDS011;29973;43.742;1.236;2022-10-26T03:30:08;86.38;;;29.90;;
44276;SDS011;29973;43.742;1.236;2022-10-26T03:32:34;104.93;;;32.97;;
44276;SDS011;29973;43.742;1.236;2022-10-26T03:35:00;124.13;;;38.15;;
44276;SDS011;29973;43.742;1.236;2022-10-26T03:37:25;133.38;;;37.65;;
44276;SDS011;29973;43.742;1.236;2022-10-26T03:39:51;120.40;;;37.25;;
44276;SDS011;29973;43.742;1.236;2022-10-26T03:42:17;145.35;;;43.03;;
44276;SDS011;29973;43.742;1.236;2022-10-26T03:44:43;144.73;;;43.60;;
44276;SDS011;29973;43.742;1.236;2022-10-26T03:47:08;142.93;;;43.85;;
44276;SDS011;29973;43.742;1.236;2022-10-26T03:49:34;158.27;;;43.53;;
44276;SDS011;29973;43.742;1.236;2022-10-26T03:52:00;140.88;;;41.33;;
44276;SDS011;29973;43.742;1.236;2022-10-26T03:54:26;149.82;;;42.25;;
44276;SDS011;29973;43.742;1.236;2022-10-26T03:56:51;144.85;;;42.03;;
44276;SDS011;29973;43.742;1.236;2022-10-26T03:59:17;138.52;;;40.85;;
44276;SDS011;29973;43.742;1.236;2022-10-26T04:01:43;150.82;;;43.13;;
44276;SDS011;29973;43.742;1.236;2022-10-26T04:04:09;144.93;;;42.83;;
44276;SDS011;29973;43.742;1.236;2022-10-26T04:06:34;165.35;;;46.20;;
44276;SDS011;29973;43.742;1.236;2022-10-26T04:09:00;165.77;;;49.45;;
44276;SDS011;29973;43.742;1.236;2022-10-26T04:11:29;155.68;;;44.65;;
44276;SDS011;29973;43.742;1.236;2022-10-26T04:13:55;159.52;;;42.53;;
44276;SDS011;29973;43.742;1.236;2022-10-26T04:16:24;144.82;;;40.20;;
44276;SDS011;29973;43.742;1.236;2022-10-26T04:18:49;145.07;;;41.58;;
44276;SDS011;29973;43.742;1.236;2022-10-26T04:21:15;140.15;;;39.20;;
44276;SDS011;29973;43.742;1.236;2022-10-26T04:23:41;170.40;;;41.88;;
44276;SDS011;29973;43.742;1.236;2022-10-26T04:26:06;117.07;;;35.78;;
44276;SDS011;29973;43.742;1.236;2022-10-26T04:28:32;257.65;;;42.85;;
44276;SDS011;29973;43.742;1.236;2022-10-26T04:30:58;141.45;;;39.20;;
44276;SDS011;29973;43.742;1.236;2022-10-26T04:33:24;570.50;;;50.88;;
44276;SDS011;29973;43.742;1.236;2022-10-26T04:35:49;123.20;;;36.35;;
44276;SDS011;29973;43.742;1.236;2022-10-26T04:38:15;169.02;;;40.15;;
44276;SDS011;29973;43.742;1.236;2022-10-26T04:40:41;168.75;;;40.45;;
44276;SDS011;29973;43.742;1.236;2022-10-26T04:43:06;187.10;;;42.58;;
44276;SDS011;29973;43.742;1.236;2022-10-26T04:45:32;150.90;;;41.97;;
44276;SDS011;29973;43.742;1.236;2022-10-26T04:48:02;178.13;;;41.78;;
44276;SDS011;29973;43.742;1.236;2022-10-26T04:50:30;170.02;;;43.88;;
44276;SDS011;29973;43.742;1.236;2022-10-26T04:52:56;175.60;;;44.15;;
44276;SDS011;29973;43.742;1.236;2022-10-26T04:55:22;868.47;;;75.07;;
44276;SDS011;29973;43.742;1.236;2022-10-26T04:57:48;311.95;;;49.28;;
44276;SDS011;29973;43.742;1.236;2022-10-26T05:00:14;202.82;;;43.95;;
44276;SDS011;29973;43.742;1.236;2022-10-26T05:02:39;222.75;;;44.90;;
44276;SDS011;29973;43.742;1.236;2022-10-26T05:05:05;603.78;;;55.72;;
44276;SDS011;29973;43.742;1.236;2022-10-26T05:07:31;201.13;;;46.88;;
44276;SDS011;29973;43.742;1.236;2022-10-26T05:09:57;199.40;;;47.83;;
44276;SDS011;29973;43.742;1.236;2022-10-26T05:12:22;194.95;;;44.92;;
44276;SDS011;29973;43.742;1.236;2022-10-26T05:14:48;204.75;;;44.40;;
44276;SDS011;29973;43.742;1.236;2022-10-26T05:17:14;566.25;;;50.65;;
44276;SDS011;29973;43.742;1.236;2022-10-26T05:19:39;128.82;;;39.58;;
44276;SDS011;29973;43.742;1.236;2022-10-26T05:22:05;258.02;;;48.97;;
44276;SDS011;29973;43.742;1.236;2022-10-26T05:24:31;196.15;;;45.92;;
44276;SDS011;29973;43.742;1.236;2022-10-26T05:26:56;190.82;;;44.30;;
44276;SDS011;29973;43.742;1.236;2022-10-26T05:29:22;182.30;;;45.35;;
44276;SDS011;29973;43.742;1.236;2022-10-26T05:31:48;228.77;;;46.95;;
44276;SDS011;29973;43.742;1.236;2022-10-26T05:34:13;232.57;;;49.70;;
44276;SDS011;29973;43.742;1.236;2022-10-26T05:36:39;194.00;;;48.25;;
44276;SDS011;29973;43.742;1.236;2022-10-26T05:39:05;149.40;;;39.47;;
44276;SDS011;29973;43.742;1.236;2022-10-26T05:41:30;181.52;;;44.70;;
44276;SDS011;29973;43.742;1.236;2022-10-26T05:43:56;204.57;;;47.50;;
44276;SDS011;29973;43.742;1.236;2022-10-26T05:46:22;156.52;;;42.28;;
44276;SDS011;29973;43.742;1.236;2022-10-26T05:48:48;155.43;;;40.75;;
44276;SDS011;29973;43.742;1.236;2022-10-26T05:51:14;143.23;;;38.15;;
44276;SDS011;29973;43.742;1.236;2022-10-26T05:53:40;131.43;;;35.88;;
44276;SDS011;29973;43.742;1.236;2022-10-26T05:56:17;188.80;;;37.22;;
44276;SDS011;29973;43.742;1.236;2022-10-26T05:58:55;646.03;;;52.20;;
44276;SDS011;29973;43.742;1.236;2022-10-26T06:01:28;195.93;;;42.47;;
44276;SDS011;29973;43.742;1.236;2022-10-26T06:04:24;111.28;;;35.55;;
44276;SDS011;29973;43.742;1.236;2022-10-26T06:07:00;119.70;;;35.83;;
44276;SDS011;29973;43.742;1.236;2022-10-26T06:09:26;136.30;;;38.83;;
44276;SDS011;29973;43.742;1.236;2022-10-26T06:11:52;181.77;;;40.38;;
44276;SDS011;29973;43.742;1.236;2022-10-26T06:14:18;566.42;;;63.10;;
44276;SDS011;29973;43.742;1.236;2022-10-26T06:28:01;154.43;;;43.35;;
44276;SDS011;29973;43.742;1.236;2022-10-26T06:30:28;141.80;;;37.97;;
44276;SDS011;29973;43.742;1.236;2022-10-26T06:32:53;170.07;;;40.88;;
44276;SDS011;29973;43.742;1.236;2022-10-26T06:35:46;170.73;;;39.58;;
44276;SDS011;29973;43.742;1.236;2022-10-26T06:38:30;117.32;;;35.28;;
44276;SDS011;29973;43.742;1.236;2022-10-26T06:40:59;231.13;;;39.40;;
44276;SDS011;29973;43.742;1.236;2022-10-26T06:43:27;349.63;;;47.45;;
44276;SDS011;29973;43.742;1.236;2022-10-26T06:45:59;142.10;;;39.80;;
44276;SDS011;29973;43.742;1.236;2022-10-26T06:51:35;153.95;;;38.75;;
44276;SDS011;29973;43.742;1.236;2022-10-26T06:54:14;292.10;;;47.13;;
44276;SDS011;29973;43.742;1.236;2022-10-26T06:56:47;211.85;;;43.72;;
44276;SDS011;29973;43.742;1.236;2022-10-26T06:59:15;191.48;;;43.42;;
44276;SDS011;29973;43.742;1.236;2022-10-26T07:01:53;143.05;;;40.00;;
44276;SDS011;29973;43.742;1.236;2022-10-26T07:04:19;129.40;;;39.30;;
44276;SDS011;29973;43.742;1.236;2022-10-26T07:06:45;125.28;;;40.42;;
44276;SDS011;29973;43.742;1.236;2022-10-26T07:09:10;120.05;;;39.40;;
44276;SDS011;29973;43.742;1.236;2022-10-26T07:11:36;140.02;;;40.65;;
44276;SDS011;29973;43.742;1.236;2022-10-26T07:14:02;124.85;;;39.75;;
44276;SDS011;29973;43.742;1.236;2022-10-26T07:16:27;133.00;;;39.55;;
44276;SDS011;29973;43.742;1.236;2022-10-26T07:18:53;130.95;;;40.25;;
44276;SDS011;29973;43.742;1.236;2022-10-26T07:21:19;266.60;;;44.00;;
44276;SDS011;29973;43.742;1.236;2022-10-26T07:23:44;248.05;;;44.80;;
44276;SDS011;29973;43.742;1.236;2022-10-26T07:26:10;368.80;;;53.13;;
44276;SDS011;29973;43.742;1.236;2022-10-26T07:28:36;145.50;;;41.70;;
44276;SDS011;29973;43.742;1.236;2022-10-26T07:31:01;176.40;;;40.42;;
44276;SDS011;29973;43.742;1.236;2022-10-26T07:33:29;123.85;;;39.40;;
44276;SDS011;29973;43.742;1.236;2022-10-26T07:35:55;152.55;;;41.50;;
44276;SDS011;29973;43.742;1.236;2022-10-26T07:38:23;129.73;;;41.05;;
44276;SDS011;29973;43.742;1.236;2022-10-26T07:40:49;141.43;;;41.97;;
44276;SDS011;29973;43.742;1.236;2022-10-26T07:43:14;147.63;;;42.28;;
44276;SDS011;29973;43.742;1.236;2022-10-26T07:45:40;124.72;;;39.30;;
44276;SDS011;29973;43.742;1.236;2022-10-26T07:48:06;123.80;;;40.22;;
44276;SDS011;29973;43.742;1.236;2022-10-26T07:50:32;116.32;;;39.63;;
44276;SDS011;29973;43.742;1.236;2022-10-26T07:52:58;127.53;;;42.08;;
44276;SDS011;29973;43.742;1.236;2022-10-26T07:55:23;104.72;;;38.30;;
44276;SDS011;29973;43.742;1.236;2022-10-26T07:57:49;107.88;;;38.30;;
44276;SDS011;29973;43.742;1.236;2022-10-26T08:00:15;105.95;;;38.65;;
44276;SDS011;29973;43.742;1.236;2022-10-26T08:02:41;93.50;;;37.35;;
44276;SDS011;29973;43.742;1.236;2022-10-26T08:05:06;96.10;;;36.38;;
44276;SDS011;29973;43.742;1.236;2022-10-26T08:07:32;82.50;;;33.70;;
44276;SDS011;29973;43.742;1.236;2022-10-26T08:10:04;76.10;;;32.40;;
44276;SDS011;29973;43.742;1.236;2022-10-26T08:12:30;82.65;;;32.80;;
44276;SDS011;29973;43.742;1.236;2022-10-26T08:14:55;76.03;;;30.67;;
44276;SDS011;29973;43.742;1.236;2022-10-26T08:17:21;67.60;;;27.67;;
44276;SDS011;29973;43.742;1.236;2022-10-26T08:19:47;65.82;;;30.48;;
44276;SDS011;29973;43.742;1.236;2022-10-26T08:22:13;66.75;;;30.08;;
44276;SDS011;29973;43.742;1.236;2022-10-26T08:24:39;68.03;;;28.58;;
44276;SDS011;29973;43.742;1.236;2022-10-26T08:27:06;63.35;;;26.85;;
44276;SDS011;29973;43.742;1.236;2022-10-26T08:29:32;57.10;;;26.98;;
44276;SDS011;29973;43.742;1.236;2022-10-26T08:31:58;61.15;;;26.13;;
44276;SDS011;29973;43.742;1.236;2022-10-26T08:34:23;55.42;;;24.60;;
44276;SDS011;29973;43.742;1.236;2022-10-26T08:36:49;52.72;;;23.48;;
44276;SDS011;29973;43.742;1.236;2022-10-26T08:39:14;53.65;;;23.95;;
44276;SDS011;29973;43.742;1.236;2022-10-26T08:41:44;53.80;;;24.42;;
44276;SDS011;29973;43.742;1.236;2022-10-26T08:46:44;58.60;;;21.90;;
44276;SDS011;29973;43.742;1.236;2022-10-26T08:51:49;39.78;;;19.02;;
44276;SDS011;29973;43.742;1.236;2022-10-26T08:54:26;41.50;;;20.52;;
44276;SDS011;29973;43.742;1.236;2022-10-26T08:57:09;51.58;;;19.02;;
44276;SDS011;29973;43.742;1.236;2022-10-26T09:02:14;46.10;;;19.13;;
44276;SDS011;29973;43.742;1.236;2022-10-26T09:04:41;44.70;;;18.77;;
44276;SDS011;29973;43.742;1.236;2022-10-26T09:07:11;40.47;;;17.60;;
44276;SDS011;29973;43.742;1.236;2022-10-26T09:10:01;44.92;;;19.30;;
44276;SDS011;29973;43.742;1.236;2022-10-26T09:18:25;56.20;;;18.50;;
44276;SDS011;29973;43.742;1.236;2022-10-26T09:26:13;35.10;;;15.95;;
44276;SDS011;29973;43.742;1.236;2022-10-26T09:28:40;35.78;;;14.13;;
44276;SDS011;29973;43.742;1.236;2022-10-26T09:31:10;38.00;;;15.38;;
44276;SDS011;29973;43.742;1.236;2022-10-26T09:33:40;46.95;;;16.98;;
44276;SDS011;29973;43.742;1.236;2022-10-26T09:36:08;40.85;;;17.40;;
44276;SDS011;29973;43.742;1.236;2022-10-26T09:38:49;53.08;;;15.18;;
44276;SDS011;29973;43.742;1.236;2022-10-26T09:46:55;25.67;;;12.77;;
44276;SDS011;29973;43.742;1.236;2022-10-26T09:49:30;44.30;;;12.27;;
44276;SDS011;29973;43.742;1.236;2022-10-26T09:52:24;32.78;;;11.77;;
44276;SDS011;29973;43.742;1.236;2022-10-26T09:54:50;36.50;;;11.57;;
44276;SDS011;29973;43.742;1.236;2022-10-26T09:57:16;50.63;;;12.43;;
44276;SDS011;29973;43.742;1.236;2022-10-26T09:59:44;36.63;;;12.00;;
44276;SDS011;29973;43.742;1.236;2022-10-26T10:04:56;41.88;;;12.40;;
44276;SDS011;29973;43.742;1.236;2022-10-26T10:07:22;35.28;;;11.48;;
44276;SDS011;29973;43.742;1.236;2022-10-26T10:12:38;20.40;;;10.20;;
44276;SDS011;29973;43.742;1.236;2022-10-26T10:15:04;28.48;;;10.07;;
44276;SDS011;29973;43.742;1.236;2022-10-26T10:17:41;35.97;;;10.77;;
44276;SDS011;29973;43.742;1.236;2022-10-26T10:20:25;34.17;;;10.45;;
44276;SDS011;29973;43.742;1.236;2022-10-26T10:22:58;36.72;;;10.65;;
44276;SDS011;29973;43.742;1.236;2022-10-26T10:25:35;35.28;;;11.40;;
44276;SDS011;29973;43.742;1.236;2022-10-26T10:28:18;38.00;;;11.20;;
44276;SDS011;29973;43.742;1.236;2022-10-26T10:30:56;36.63;;;10.23;;
44276;SDS011;29973;43.742;1.236;2022-10-26T10:36:04;29.95;;;9.52;;
44276;SDS011;29973;43.742;1.236;2022-10-26T10:38:36;40.50;;;9.93;;
44276;SDS011;29973;43.742;1.236;2022-10-26T10:41:04;32.50;;;9.18;;
44276;SDS011;29973;43.742;1.236;2022-10-26T10:43:42;24.48;;;10.18;;
44276;SDS011;29973;43.742;1.236;2022-10-26T10:46:15;29.23;;;9.43;;
44276;SDS011;29973;43.742;1.236;2022-10-26T10:48:47;25.63;;;9.32;;
44276;SDS011;29973;43.742;1.236;2022-10-26T10:51:18;32.67;;;10.18;;
44276;SDS011;29973;43.742;1.236;2022-10-26T10:53:51;26.95;;;8.85;;
44276;SDS011;29973;43.742;1.236;2022-10-26T10:56:40;31.08;;;10.63;;
44276;SDS011;29973;43.742;1.236;2022-10-26T11:02:17;28.08;;;8.50;;
44276;SDS011;29973;43.742;1.236;2022-10-26T11:10:40;35.75;;;8.55;;
44276;SDS011;29973;43.742;1.236;2022-10-26T11:16:04;29.00;;;8.68;;
44276;SDS011;29973;43.742;1.236;2022-10-26T11:18:38;22.67;;;8.80;;
44276;SDS011;29973;43.742;1.236;2022-10-26T11:21:21;29.50;;;8.35;;
44276;SDS011;29973;43.742;1.236;2022-10-26T11:24:09;36.97;;;9.88;;
44276;SDS011;29973;43.742;1.236;2022-10-26T11:32:07;30.27;;;10.10;;
44276;SDS011;29973;43.742;1.236;2022-10-26T11:40:25;31.98;;;10.82;;
44276;SDS011;29973;43.742;1.236;2022-10-26T11:45:41;32.65;;;9.48;;
44276;SDS011;29973;43.742;1.236;2022-10-26T11:48:28;30.52;;;8.88;;
44276;SDS011;29973;43.742;1.236;2022-10-26T11:51:00;22.20;;;8.88;;
44276;SDS011;29973;43.742;1.236;2022-10-26T11:53:31;22.50;;;8.98;;
44276;SDS011;29973;43.742;1.236;2022-10-26T11:56:03;26.25;;;8.32;;
44276;SDS011;29973;43.742;1.236;2022-10-26T11:58:34;22.75;;;6.97;;
44276;SDS011;29973;43.742;1.236;2022-10-26T12:01:07;29.40;;;8.98;;
44276;SDS011;29973;43.742;1.236;2022-10-26T12:03:37;27.05;;;7.55;;
44276;SDS011;29973;43.742;1.236;2022-10-26T12:06:09;25.00;;;6.90;;
44276;SDS011;29973;43.742;1.236;2022-10-26T12:08:39;22.67;;;6.60;;
44276;SDS011;29973;43.742;1.236;2022-10-26T12:14:00;27.80;;;6.97;;
44276;SDS011;29973;43.742;1.236;2022-10-26T12:16:55;31.45;;;7.35;;
44276;SDS011;29973;43.742;1.236;2022-10-26T12:22:18;19.70;;;6.40;;
44276;SDS011;29973;43.742;1.236;2022-10-26T12:24:46;19.63;;;6.03;;
44276;SDS011;29973;43.742;1.236;2022-10-26T12:40:48;24.80;;;6.20;;
44276;SDS011;29973;43.742;1.236;2022-10-26T12:43:43;30.13;;;5.80;;
44276;SDS011;29973;43.742;1.236;2022-10-26T12:48:41;24.52;;;6.10;;
44276;SDS011;29973;43.742;1.236;2022-10-26T12:54:00;22.08;;;5.43;;
44276;SDS011;29973;43.742;1.236;2022-10-26T12:56:41;22.25;;;5.97;;
44276;SDS011;29973;43.742;1.236;2022-10-26T12:59:21;23.88;;;5.47;;
44276;SDS011;29973;43.742;1.236;2022-10-26T13:02:46;21.27;;;5.85;;
44276;SDS011;29973;43.742;1.236;2022-10-26T13:07:47;27.33;;;6.07;;
44276;SDS011;29973;43.742;1.236;2022-10-26T13:12:49;20.08;;;5.45;;
44276;SDS011;29973;43.742;1.236;2022-10-26T13:15:21;16.15;;;5.32;;
44276;SDS011;29973;43.742;1.236;2022-10-26T13:18:17;18.00;;;5.55;;
44276;SDS011;29973;43.742;1.236;2022-10-26T13:23:33;24.13;;;5.85;;
44276;SDS011;29973;43.742;1.236;2022-10-26T13:28:45;18.38;;;4.78;;
44276;SDS011;29973;43.742;1.236;2022-10-26T13:39:17;17.13;;;5.05;;
44276;SDS011;29973;43.742;1.236;2022-10-26T13:42:06;19.90;;;5.50;;
44276;SDS011;29973;43.742;1.236;2022-10-26T13:44:58;23.13;;;5.22;;
44276;SDS011;29973;43.742;1.236;2022-10-26T13:51:01;23.67;;;5.43;;
44276;SDS011;29973;43.742;1.236;2022-10-26T13:53:38;19.00;;;5.75;;
44276;SDS011;29973;43.742;1.236;2022-10-26T13:58:57;31.23;;;5.32;;
44276;SDS011;29973;43.742;1.236;2022-10-26T14:01:27;27.00;;;4.97;;
44276;SDS011;29973;43.742;1.236;2022-10-26T14:03:53;17.23;;;5.00;;
44276;SDS011;29973;43.742;1.236;2022-10-26T14:06:23;22.25;;;5.00;;
44276;SDS011;29973;43.742;1.236;2022-10-26T14:08:54;26.02;;;5.88;;
44276;SDS011;29973;43.742;1.236;2022-10-26T14:11:29;24.77;;;5.82;;
44276;SDS011;29973;43.742;1.236;2022-10-26T14:16:56;20.80;;;5.05;;
44276;SDS011;29973;43.742;1.236;2022-10-26T14:19:28;17.90;;;5.07;;
44276;SDS011;29973;43.742;1.236;2022-10-26T14:21:56;21.25;;;5.55;;
44276;SDS011;29973;43.742;1.236;2022-10-26T14:24:25;24.27;;;5.68;;
44276;SDS011;29973;43.742;1.236;2022-10-26T14:26:53;26.45;;;5.35;;
44276;SDS011;29973;43.742;1.236;2022-10-26T14:29:20;15.40;;;4.97;;
44276;SDS011;29973;43.742;1.236;2022-10-26T14:31:48;17.95;;;5.32;;
44276;SDS011;29973;43.742;1.236;2022-10-26T14:34:14;22.35;;;5.60;;
44276;SDS011;29973;43.742;1.236;2022-10-26T14:36:43;16.73;;;5.20;;
44276;SDS011;29973;43.742;1.236;2022-10-26T14:42:07;17.35;;;5.68;;
44276;SDS011;29973;43.742;1.236;2022-10-26T14:44:55;21.63;;;5.97;;
44276;SDS011;29973;43.742;1.236;2022-10-26T14:47:23;20.27;;;6.03;;
44276;SDS011;29973;43.742;1.236;2022-10-26T14:49:53;21.40;;;5.38;;
44276;SDS011;29973;43.742;1.236;2022-10-26T14:52:23;26.90;;;6.30;;
44276;SDS011;29973;43.742;1.236;2022-10-26T14:55:26;19.38;;;5.07;;
44276;SDS011;29973;43.742;1.236;2022-10-26T14:57:46;16.52;;;5.20;;
44276;SDS011;29973;43.742;1.236;2022-10-26T15:00:17;23.40;;;5.55;;
44276;SDS011;29973;43.742;1.236;2022-10-26T15:02:51;26.58;;;6.43;;
44276;SDS011;29973;43.742;1.236;2022-10-26T15:07:48;22.05;;;5.43;;
44276;SDS011;29973;43.742;1.236;2022-10-26T15:13:08;12.13;;;4.93;;
44276;SDS011;29973;43.742;1.236;2022-10-26T15:15:39;16.13;;;5.00;;
44276;SDS011;29973;43.742;1.236;2022-10-26T15:18:05;19.83;;;5.15;;
44276;SDS011;29973;43.742;1.236;2022-10-26T15:20:51;20.38;;;5.07;;
44276;SDS011;29973;43.742;1.236;2022-10-26T15:23:18;16.95;;;5.20;;
44276;SDS011;29973;43.742;1.236;2022-10-26T15:31:01;17.77;;;4.72;;
44276;SDS011;29973;43.742;1.236;2022-10-26T15:33:29;24.23;;;4.50;;
44276;SDS011;29973;43.742;1.236;2022-10-26T15:38:41;23.45;;;5.78;;
44276;SDS011;29973;43.742;1.236;2022-10-26T15:41:18;21.25;;;5.28;;
44276;SDS011;29973;43.742;1.236;2022-10-26T15:43:54;13.68;;;4.72;;
44276;SDS011;29973;43.742;1.236;2022-10-26T15:46:21;25.73;;;5.90;;
44276;SDS011;29973;43.742;1.236;2022-10-26T15:48:58;21.25;;;5.13;;
44276;SDS011;29973;43.742;1.236;2022-10-26T15:51:25;20.88;;;5.80;;
44276;SDS011;29973;43.742;1.236;2022-10-26T15:53:54;28.20;;;5.57;;
44276;SDS011;29973;43.742;1.236;2022-10-26T15:56:22;14.35;;;5.20;;
44276;SDS011;29973;43.742;1.236;2022-10-26T15:58:50;17.20;;;5.72;;
44276;SDS011;29973;43.742;1.236;2022-10-26T16:01:20;23.27;;;6.13;;
44276;SDS011;29973;43.742;1.236;2022-10-26T16:03:48;24.98;;;5.95;;
44276;SDS011;29973;43.742;1.236;2022-10-26T16:08:59;19.75;;;6.18;;
44276;SDS011;29973;43.742;1.236;2022-10-26T16:11:26;22.30;;;7.15;;
44276;SDS011;29973;43.742;1.236;2022-10-26T16:13:53;24.52;;;7.03;;
44276;SDS011;29973;43.742;1.236;2022-10-26T16:16:19;22.63;;;6.97;;
44276;SDS011;29973;43.742;1.236;2022-10-26T16:18:46;17.48;;;6.70;;
44276;SDS011;29973;43.742;1.236;2022-10-26T16:21:16;20.70;;;7.13;;
44276;SDS011;29973;43.742;1.236;2022-10-26T16:23:47;25.08;;;6.40;;
44276;SDS011;29973;43.742;1.236;2022-10-26T16:26:14;20.83;;;6.68;;
44276;SDS011;29973;43.742;1.236;2022-10-26T16:28:40;20.33;;;6.80;;
44276;SDS011;29973;43.742;1.236;2022-10-26T16:31:07;23.15;;;6.55;;
44276;SDS011;29973;43.742;1.236;2022-10-26T16:33:36;21.25;;;6.32;;
44276;SDS011;29973;43.742;1.236;2022-10-26T16:36:03;23.23;;;7.28;;
44276;SDS011;29973;43.742;1.236;2022-10-26T16:38:29;21.63;;;6.88;;
44276;SDS011;29973;43.742;1.236;2022-10-26T16:41:14;24.15;;;7.63;;
44276;SDS011;29973;43.742;1.236;2022-10-26T16:43:42;21.23;;;7.30;;
44276;SDS011;29973;43.742;1.236;2022-10-26T16:46:13;21.98;;;6.72;;
44276;SDS011;29973;43.742;1.236;2022-10-26T16:48:41;25.60;;;7.25;;
44276;SDS011;29973;43.742;1.236;2022-10-26T16:51:09;20.75;;;7.40;;
44276;SDS011;29973;43.742;1.236;2022-10-26T16:53:37;22.38;;;6.47;;
44276;SDS011;29973;43.742;1.236;2022-10-26T16:56:07;19.77;;;6.68;;
44276;SDS011;29973;43.742;1.236;2022-10-26T16:58:35;18.85;;;7.28;;
44276;SDS011;29973;43.742;1.236;2022-10-26T17:01:01;24.63;;;7.28;;
44276;SDS011;29973;43.742;1.236;2022-10-26T17:03:27;24.70;;;7.35;;
44276;SDS011;29973;43.742;1.236;2022-10-26T17:05:54;31.98;;;8.15;;
44276;SDS011;29973;43.742;1.236;2022-10-26T17:08:24;19.92;;;7.93;;
44276;SDS011;29973;43.742;1.236;2022-10-26T17:10:50;22.73;;;8.00;;
44276;SDS011;29973;43.742;1.236;2022-10-26T17:13:17;26.80;;;8.63;;
44276;SDS011;29973;43.742;1.236;2022-10-26T17:15:43;19.58;;;8.60;;
44276;SDS011;29973;43.742;1.236;2022-10-26T17:18:09;27.85;;;8.25;;
44276;SDS011;29973;43.742;1.236;2022-10-26T17:20:35;19.63;;;8.90;;
44276;SDS011;29973;43.742;1.236;2022-10-26T17:23:01;25.17;;;8.40;;
44276;SDS011;29973;43.742;1.236;2022-10-26T17:25:27;28.25;;;8.85;;
44276;SDS011;29973;43.742;1.236;2022-10-26T17:27:53;21.58;;;8.13;;
44276;SDS011;29973;43.742;1.236;2022-10-26T17:30:20;25.65;;;8.35;;
44276;SDS011;29973;43.742;1.236;2022-10-26T17:32:46;35.47;;;8.70;;
44276;SDS011;29973;43.742;1.236;2022-10-26T17:35:12;26.15;;;8.40;;